Aérodrome :
LOGIN :

S'inscrire | Disclaimer

   EN    FR    IT 

 










Légende :    VFR   VFR Marginal   IFR   IFR Intensif   IFR Très Intensif
Visi : 
Plafond : 
>= 8 km
>= 3000ft
5 à 8 km
1000 à 3000 ft
1500m à 5 km
500 à 1000 ft
800 à 1500m
200 à 500 ft
< 800m
< 200 ft
Symboles :   Orages  Brouillard  Fortes neiges  Fortes précipitations  Vent > 20 kt
SIGMETs :   Divers  Orages  Givrage  Turbulence  Onde Orograph.  Cendres Volcan.






- Altitude de l'aérodrome : 16 ft
- Code IATA : EAS


LESO - San Sebastian Fuenterrabia

DERNIER METAR :
  • 082200Z AUTO 24009KT 210V280 CAVOK 22/18 Q1018

METARs EXPIRÉS :
  • 082130Z AUTO 23005KT 200V260 CAVOK 22/18 Q1017
  • 082100Z AUTO 25003KT 200V290 CAVOK 22/18 Q1017
  • 082030Z AUTO 24004KT 200V280 CAVOK 22/18 Q1017
  • 082000Z AUTO 25003KT 210V290 CAVOK 23/18 Q1016
  • 081930Z VRB02KT CAVOK 23/18 Q1016

TAF TAF LESO
Valide du 08 à 18h jusqu'au 09 à 18h UTC


081700Z 0818/0918 VRB05KT CAVOK TX26/0913Z TN18/0906Z
TEMPO 0818/0819 02010KT
TEMPO 0911/0918 33010KT



MET'MAP, la Météo Aéronautique d'un coup d'oeil ! - Copyright ORBIFLY Décembre 2007 - Disclaimer

ORBIFLY MET'MAP TEAM :

Programmation & Développement : Alexandra Zaïnal
Sur une idée originale de : Baudouin d'Aumeries
Assistance à la programmation : Marc-Olivier Méhu
Soutien technique & logistique : Manuel Goepfert

Contact : metmap@orbifly.com




SOURCES & CREDITS :

   NOAA